Etusivu
METAR-TAF:

METAR-TAF

Lentoasemat :

Figari, Ranska

Leveyspiiri: 41-30N, Pituuspiiri: 009-06E, korkeus merenpinnasta: 26 m

Tämänhetkinen sää

Tämä raportti tehtiin 20 minuuttia sitten, kello 16.00 UTC
Tuuli 14 kn idästä/koillisesta
Lämpötila 16°C
Kosteus 45%
Ilmanpaine 1023 hPa
Näkyvyys 10 km tai enemmän
ei pilviä alle 1500 m:ssä eikä cumulonimbus-pilviä

METAR: LFKF 211600Z AUTO 06014KT CAVOK 16/04 Q1023 TEMPO 05017G27KT

Aika: 17:20 (16:20 UTC)

Sääennuste

Tämä raportti tehtiin 2 tuntia ja 20 minuuttia sitten, kello 14.00 UTC
Ennuste voimassa 21. päivästä klo 15 UTC - 22. päivään klo 15 UTC
Tuuli 12 kn koillisesta
Näkyvyys 10 km tai enemmän
ei pilviä alle 1500 m:ssä eikä cumulonimbus-pilviä
Ajoittain
21. päivästä klo 15 UTC - 22. päivään klo 05 UTC
Tuuli 17 kn koillisesta puuskistuen 27 kn:hen

TAF: LFKF 211400Z 2115/2215 05012KT CAVOK TEMPO 2115/2205 05017G27KT

Säähavainnot ja -ennusteet yli 4000 lentoasemalta (METAR- ja TAF-raportit).

Käytössä olevat sääasemat on merkitty karttaan keltaisilla ja punaisilla pisteillä.

Aseta hiiri pisteen päälle nähdäksesi sääaseman nimen.

Klikkaa sitten nähdäksesi säähavainnot ja -ennusteet.

Kartan vaihtaminen: klikkaa mustalla rastilla varustettuja vihreitä pisteitä, niin voit zoomata sisään; viivalla varustettua vihreää pistettä, niin voit zoomata ulos tai vihreitä nuolia, niin pääset viereisille kartoille.


METAR-TAF: